Time;durP1;ratioP1;P1;durP2;ratioP2;P2;SDS_P1;SDS_P2;PMS_P1;PMS_P2;Temp;Humidity;BMP_temperature;BMP_pressure;BME280_temperature;BME280_humidity;BME280_pressure;Samples;Min_cycle;Max_cycle;Signal;HPM_P1;HPM_P2
2023/07/17 00:01:06;;;;;;;5.07;2.92;;;;;;;19.93;83.09;101391.78;5115126;28;20075;-62
2023/07/17 00:03:34;;;;;;;6.90;2.78;;;;;;;19.90;83.40;101397.94;5113537;28;20050;-64
2023/07/17 00:06:02;;;;;;;5.15;2.85;;;;;;;19.86;84.20;101394.19;5113009;28;20131;-63
2023/07/17 00:08:30;;;;;;;8.20;3.13;;;;;;;19.87;84.34;101397.78;5096318;28;20039;-64
2023/07/17 00:10:58;;;;;;;5.57;2.97;;;;;;;19.86;83.81;101401.66;5115042;28;20114;-63
2023/07/17 00:13:26;;;;;;;6.80;3.22;;;;;;;19.84;83.66;101404.75;5115575;28;20052;-62
2023/07/17 00:15:54;;;;;;;4.93;2.83;;;;;;;19.81;83.51;101410.91;5096052;28;20039;-60
2023/07/17 00:18:21;;;;;;;6.70;2.78;;;;;;;19.80;83.65;101403.75;5080338;28;20075;-61
2023/07/17 00:20:49;;;;;;;5.55;2.92;;;;;;;19.77;83.96;101405.22;5080470;28;20116;-63
2023/07/17 00:23:17;;;;;;;7.00;2.92;;;;;;;19.77;84.18;101401.59;5114208;28;20495;-62
2023/07/17 00:25:44;;;;;;;5.78;3.17;;;;;;;19.77;83.45;101399.69;5115234;28;20060;-61
2023/07/17 00:28:12;;;;;;;5.50;2.80;;;;;;;19.73;84.20;101397.88;5114312;28;20051;-63
2023/07/17 00:30:40;;;;;;;5.70;2.83;;;;;;;19.69;84.56;101402.38;5115242;28;20059;-61
2023/07/17 00:33:09;;;;;;;4.40;2.85;;;;;;;19.65;84.39;101413.25;5096480;28;20385;-63
2023/07/17 00:35:37;;;;;;;6.47;2.90;;;;;;;19.63;84.63;101414.69;5063031;28;20087;-59
2023/07/17 00:38:04;;;;;;;6.75;2.88;;;;;;;19.63;84.20;101414.69;5080410;28;20097;-63
2023/07/17 00:40:34;;;;;;;6.15;2.80;;;;;;;19.61;84.43;101411.41;5096119;28;20051;-63
2023/07/17 00:43:01;;;;;;;4.13;2.60;;;;;;;19.57;83.94;101405.69;5114658;28;20055;-62
2023/07/17 00:45:32;;;;;;;6.90;2.88;;;;;;;19.57;83.94;101403.72;5096218;28;20055;-63
2023/07/17 00:48:03;;;;;;;6.10;3.10;;;;;;;19.55;84.14;101408.78;5111646;28;20055;-62
2023/07/17 00:50:31;;;;;;;8.15;3.10;;;;;;;19.59;84.02;101408.94;5113484;28;20059;-63
2023/07/17 00:52:59;;;;;;;7.07;3.13;;;;;;;19.56;84.06;101420.66;5096998;28;20051;-62
2023/07/17 00:55:26;;;;;;;5.03;2.88;;;;;;;19.57;84.00;101425.84;5096056;28;20046;-63
2023/07/17 00:57:55;;;;;;;7.80;3.33;;;;;;;19.62;83.85;101430.44;5095304;28;20504;-63
2023/07/17 01:00:24;;;;;;;8.98;3.70;;;;;;;19.66;83.47;101425.91;5069811;28;20071;-63
2023/07/17 01:02:53;;;;;;;7.97;3.30;;;;;;;19.65;83.43;101423.47;5043297;28;20040;-62
2023/07/17 01:05:20;;;;;;;9.02;3.13;;;;;;;19.62;83.47;101421.31;5076435;28;20047;-62
2023/07/17 01:07:48;;;;;;;7.10;2.67;;;;;;;19.60;83.55;101429.94;5105524;28;20093;-64
2023/07/17 01:10:16;;;;;;;6.57;3.00;;;;;;;19.55;83.72;101430.06;5081344;28;20118;-63
2023/07/17 01:12:45;;;;;;;6.40;2.92;;;;;;;19.49;84.48;101434.91;5117322;28;20056;-63
2023/07/17 01:15:13;;;;;;;7.03;3.22;;;;;;;19.52;84.13;101447.28;5099847;28;20044;-62
2023/07/17 01:17:41;;;;;;;7.05;3.10;;;;;;;19.47;84.26;101442.69;5082320;28;20047;-63
2023/07/17 01:20:10;;;;;;;7.38;3.22;;;;;;;19.39;84.68;101437.91;5095789;28;20505;-62
2023/07/17 01:22:59;;;;;;;7.07;2.83;;;;;;;19.45;84.03;101442.19;5096928;28;20048;-63
2023/07/17 01:25:27;;;;;;;8.50;3.70;;;;;;;19.39;84.61;101443.44;5063114;28;20052;-62
2023/07/17 01:27:55;;;;;;;6.97;3.30;;;;;;;19.34;84.59;101443.56;5090441;28;20071;-62
2023/07/17 01:30:23;;;;;;;5.13;3.10;;;;;;;19.30;84.96;101435.06;5114929;28;20048;-63
2023/07/17 01:32:51;;;;;;;6.65;3.30;;;;;;;19.27;85.23;101443.19;5118033;28;20496;-64
2023/07/17 01:35:19;;;;;;;7.45;3.10;;;;;;;19.28;85.32;101442.84;5117168;28;20067;-62
2023/07/17 01:37:46;;;;;;;7.18;3.00;;;;;;;19.27;85.21;101445.94;5117781;27;20101;-62
2023/07/17 01:40:16;;;;;;;7.10;2.75;;;;;;;19.22;85.67;101449.63;5115361;28;20113;-63
2023/07/17 01:42:43;;;;;;;4.63;2.65;;;;;;;19.19;85.41;101455.75;5078754;28;20059;-62
2023/07/17 01:45:11;;;;;;;6.35;3.05;;;;;;;19.19;85.69;101449.44;5062668;28;20533;-63
2023/07/17 01:47:39;;;;;;;7.78;3.20;;;;;;;19.21;85.76;101444.41;5089565;28;20563;-63
2023/07/17 01:50:07;;;;;;;7.53;3.25;;;;;;;19.18;85.47;101450.56;5099847;28;20097;-61
2023/07/17 01:52:35;;;;;;;8.27;3.30;;;;;;;19.15;85.74;101455.59;5099213;28;20053;-63
2023/07/17 01:55:05;;;;;;;6.05;2.63;;;;;;;19.27;85.51;101454.22;5109921;28;20538;-62
2023/07/17 01:57:33;;;;;;;3.95;2.67;;;;;;;19.24;84.95;101446.53;5094481;28;20047;-63
2023/07/17 02:00:01;;;;;;;6.72;3.08;;;;;;;19.19;85.22;101438.38;5117323;28;20039;-63
2023/07/17 02:02:40;;;;;;;8.05;3.33;;;;;;;19.07;85.82;101441.69;5115806;28;20430;-62
2023/07/17 02:05:08;;;;;;;6.15;3.10;;;;;;;18.99;86.55;101437.72;5082293;28;20040;-63
2023/07/17 02:07:36;;;;;;;7.63;3.08;;;;;;;18.98;86.68;101447.13;5091332;28;20051;-63
2023/07/17 02:10:04;;;;;;;6.53;2.90;;;;;;;19.03;86.34;101441.50;5099494;28;20078;-63
2023/07/17 02:12:33;;;;;;;7.55;3.08;;;;;;;19.04;86.15;101437.59;5098807;28;20039;-64
2023/07/17 02:15:01;;;;;;;7.55;3.40;;;;;;;19.04;86.01;101440.34;5098995;28;20044;-64
2023/07/17 02:17:30;;;;;;;9.30;3.38;;;;;;;19.00;86.19;101444.88;5116493;28;20403;-61
2023/07/17 02:19:58;;;;;;;5.47;2.88;;;;;;;18.99;86.37;101442.44;5082187;28;20043;-64
2023/07/17 02:22:27;;;;;;;9.15;3.33;;;;;;;18.97;86.19;101448.25;5098567;28;20050;-64
2023/07/17 02:24:57;;;;;;;9.13;3.20;;;;;;;18.89;86.57;101449.00;5080387;28;20411;-62
2023/07/17 02:27:25;;;;;;;7.03;3.10;;;;;;;18.79;86.77;101441.75;5113887;28;20556;-63
2023/07/17 02:29:54;;;;;;;7.68;3.10;;;;;;;18.79;86.91;101438.97;5096720;28;20067;-63
2023/07/17 02:32:21;;;;;;;5.85;3.40;;;;;;;18.78;87.20;101450.31;5098143;28;20043;-62
2023/07/17 02:34:49;;;;;;;7.18;2.97;;;;;;;18.76;87.47;101449.78;5096643;28;20075;-64
2023/07/17 02:37:17;;;;;;;9.43;3.10;;;;;;;18.74;87.42;101456.44;5097041;28;20055;-62
2023/07/17 02:39:44;;;;;;;7.07;3.22;;;;;;;18.71;87.39;101457.06;5097218;28;20052;-62
2023/07/17 02:42:12;;;;;;;8.10;3.30;;;;;;;18.68;87.74;101451.31;5115498;28;20048;-62
2023/07/17 02:44:40;;;;;;;8.60;3.00;;;;;;;18.68;87.89;101457.66;5096305;28;20459;-64
2023/07/17 02:47:07;;;;;;;10.50;3.75;;;;;;;18.63;87.97;101459.72;5097289;28;20529;-64
2023/07/17 02:49:35;;;;;;;9.18;3.50;;;;;;;18.61;88.11;101465.53;5096786;28;20063;-62
2023/07/17 02:52:03;;;;;;;8.35;3.38;;;;;;;18.61;88.17;101467.47;5080486;28;20475;-63
2023/07/17 02:54:31;;;;;;;6.85;3.17;;;;;;;18.62;87.90;101461.66;5095912;28;20399;-64
2023/07/17 02:56:58;;;;;;;8.52;3.45;;;;;;;18.61;88.07;101461.94;5110380;28;20062;-64
2023/07/17 02:59:26;;;;;;;8.65;3.20;;;;;;;18.59;88.27;101465.03;5113571;28;20451;-62
2023/07/17 03:01:54;;;;;;;8.82;3.13;;;;;;;18.65;88.23;101462.97;5080495;28;20381;-63
2023/07/17 03:04:22;;;;;;;9.50;3.28;;;;;;;18.61;88.16;101462.75;5115047;28;20047;-62
2023/07/17 03:06:50;;;;;;;6.20;2.97;;;;;;;18.58;88.15;101465.34;5112778;28;20051;-64
2023/07/17 03:09:17;;;;;;;9.23;3.30;;;;;;;18.55;88.09;101474.22;5114680;28;20101;-63
2023/07/17 03:11:45;;;;;;;7.80;3.20;;;;;;;18.52;88.23;101478.44;5097251;28;20118;-64
2023/07/17 03:14:13;;;;;;;8.35;3.08;;;;;;;18.45;88.30;101475.25;5119040;28;20055;-63
2023/07/17 03:16:41;;;;;;;7.38;2.88;;;;;;;18.47;88.41;101475.75;5127309;28;20043;-61
2023/07/17 03:19:10;;;;;;;7.78;2.92;;;;;;;18.45;88.72;101480.78;5103028;28;20059;-64
2023/07/17 03:21:38;;;;;;;10.32;3.55;;;;;;;18.42;88.55;101478.59;5115022;28;20503;-63
2023/07/17 03:24:06;;;;;;;10.02;3.58;;;;;;;18.39;88.62;101481.97;5063481;28;1140338;-60
2023/07/17 03:26:34;;;;;;;8.57;3.08;;;;;;;18.39;88.43;101487.50;5103597;28;20055;-61
2023/07/17 03:29:04;;;;;;;9.75;3.28;;;;;;;18.33;88.70;101483.19;5103335;28;20074;-62
2023/07/17 03:31:32;;;;;;;6.43;2.88;;;;;;;18.34;88.88;101491.16;5100834;28;20495;-64
2023/07/17 03:33:59;;;;;;;11.68;3.50;;;;;;;18.38;88.56;101489.44;5081756;28;20074;-62
2023/07/17 03:36:27;;;;;;;7.38;2.88;;;;;;;18.44;88.34;101490.16;5062790;28;20054;-63
2023/07/17 03:38:55;;;;;;;11.25;3.60;;;;;;;18.37;88.24;101486.97;5115861;28;20051;-63
2023/07/17 03:41:23;;;;;;;8.27;3.00;;;;;;;18.34;88.79;101484.84;5097939;28;20071;-64
2023/07/17 03:43:50;;;;;;;7.70;2.90;;;;;;;18.36;88.52;101485.34;5097915;28;20399;-63
2023/07/17 03:46:19;;;;;;;5.40;2.72;;;;;;;18.40;88.37;101483.59;5097365;28;20523;-63
2023/07/17 03:48:46;;;;;;;7.20;2.80;;;;;;;18.36;88.21;101477.06;5076247;28;20492;-64
2023/07/17 03:51:14;;;;;;;6.93;2.72;;;;;;;18.30;88.05;101485.44;5079763;28;20063;-64
2023/07/17 03:53:42;;;;;;;5.55;2.67;;;;;;;18.26;88.25;101487.16;5076891;28;20082;-63
2023/07/17 03:56:10;;;;;;;8.70;3.00;;;;;;;18.30;88.73;101484.59;5076280;28;20054;-64
2023/07/17 03:58:38;;;;;;;8.45;2.95;;;;;;;18.24;88.69;101492.16;5114455;28;20047;-63
2023/07/17 04:01:06;;;;;;;6.95;2.85;;;;;;;18.17;88.65;101497.25;5095490;28;20070;-64
2023/07/17 04:03:41;;;;;;;8.90;2.97;;;;;;;18.16;88.95;101501.16;5094711;28;20097;-64
2023/07/17 04:06:09;;;;;;;8.68;3.00;;;;;;;18.12;88.97;101502.06;5077999;28;20126;-63
2023/07/17 04:08:38;;;;;;;10.98;3.08;;;;;;;18.07;89.39;101497.44;5092982;28;20047;-63
2023/07/17 04:11:06;;;;;;;6.00;2.70;;;;;;;18.12;89.33;101502.88;5078617;28;20070;-64
2023/07/17 04:13:34;;;;;;;5.72;2.63;;;;;;;18.13;89.56;101507.25;5091301;28;20036;-64
2023/07/17 04:16:04;;;;;;;6.28;2.53;;;;;;;18.23;89.22;101512.63;5081360;28;20046;-63
2023/07/17 04:18:32;;;;;;;8.00;3.47;;;;;;;18.35;88.37;101514.88;5085178;28;20074;-63
2023/07/17 04:21:00;;;;;;;8.48;3.33;;;;;;;18.24;88.24;101514.22;5095262;28;20051;-64
2023/07/17 04:23:29;;;;;;;5.88;2.78;;;;;;;18.22;88.60;101516.47;5096447;28;20119;-65
2023/07/17 04:25:59;;;;;;;8.07;3.10;;;;;;;18.13;88.33;101520.22;5096452;28;20075;-64
2023/07/17 04:28:27;;;;;;;7.60;3.08;;;;;;;18.17;88.86;101513.00;5096794;28;20498;-66
2023/07/17 04:30:56;;;;;;;9.45;3.03;;;;;;;18.14;88.34;101514.41;5078402;28;20047;-65
2023/07/17 04:33:28;;;;;;;8.07;3.30;;;;;;;18.11;88.26;101517.75;5096745;28;20157;-64
2023/07/17 04:35:57;;;;;;;10.93;2.85;;;;;;;18.18;89.26;101520.13;5098086;28;20047;-64
2023/07/17 04:38:25;;;;;;;8.68;3.13;;;;;;;18.20;88.62;101523.41;5114071;28;20105;-64
2023/07/17 04:40:53;;;;;;;5.88;2.97;;;;;;;18.21;89.25;101525.88;5086487;28;20044;-63
2023/07/17 04:43:21;;;;;;;9.73;3.30;;;;;;;18.18;87.90;101523.72;5095931;28;20074;-63
2023/07/17 04:45:50;;;;;;;6.68;3.42;;;;;;;18.14;87.31;101530.16;5094403;28;20035;-64
2023/07/17 04:48:20;;;;;;;11.10;3.70;;;;;;;18.28;87.73;101542.06;5062730;28;20052;-65
2023/07/17 04:50:48;;;;;;;10.23;3.97;;;;;;;18.24;87.08;101536.31;5080481;28;20059;-63
2023/07/17 04:53:16;;;;;;;12.05;4.07;;;;;;;18.15;87.18;101538.13;5095985;28;20496;-62
2023/07/17 04:55:44;;;;;;;8.43;3.20;;;;;;;18.22;86.84;101541.31;5094140;28;20031;-64
2023/07/17 04:58:13;;;;;;;6.55;3.15;;;;;;;18.24;86.97;101541.81;5080381;28;20047;-64
2023/07/17 05:00:45;;;;;;;12.43;4.43;;;;;;;18.17;86.12;101544.16;5079249;28;20093;-63
2023/07/17 05:03:15;;;;;;;9.07;3.42;;;;;;;18.21;87.17;101547.94;5095955;28;20035;-63
2023/07/17 05:05:50;;;;;;;12.40;4.65;;;;;;;18.15;86.96;101551.91;5077351;28;20085;-65
2023/07/17 05:08:18;;;;;;;7.82;3.65;;;;;;;18.31;86.89;101545.00;5096005;28;20051;-63
2023/07/17 05:10:57;;;;;;;9.55;4.07;;;;;;;18.20;86.42;101551.81;5095878;28;20054;-64
2023/07/17 05:13:29;;;;;;;11.55;4.43;;;;;;;18.23;86.31;101556.75;5079414;28;20549;-64
2023/07/17 05:15:59;;;;;;;8.50;4.00;;;;;;;18.35;86.06;101552.66;5094728;28;20036;-63
2023/07/17 05:18:27;;;;;;;11.52;4.80;;;;;;;18.16;85.31;101556.31;4379234;28;10000698;-64
2023/07/17 05:20:55;;;;;;;13.48;5.13;;;;;;;18.14;85.42;101557.75;5079218;28;20159;-64
2023/07/17 05:23:23;;;;;;;13.35;5.43;;;;;;;18.08;85.16;101559.75;5055205;28;20098;-64
2023/07/17 05:25:58;;;;;;;9.50;4.20;;;;;;;18.10;86.46;101565.78;5074280;28;20044;-65
2023/07/17 05:28:28;;;;;;;9.13;3.95;;;;;;;18.36;86.75;101559.84;5074318;28;20051;-64
2023/07/17 05:30:56;;;;;;;8.05;3.97;;;;;;;18.34;85.47;101562.09;5091092;28;20126;-64
2023/07/17 05:33:25;;;;;;;11.10;5.05;;;;;;;18.22;85.61;101566.13;5091548;28;20122;-63
2023/07/17 05:35:53;;;;;;;9.98;4.35;;;;;;;18.16;85.56;101578.38;5109590;28;20051;-62
2023/07/17 05:38:23;;;;;;;9.98;4.38;;;;;;;18.34;85.81;101579.44;5075744;28;20051;-66
2023/07/17 05:40:59;;;;;;;9.07;4.28;;;;;;;18.28;85.63;101570.44;5073778;28;20111;-62
2023/07/17 05:43:27;;;;;;;7.68;3.67;;;;;;;18.44;85.32;101575.69;5091670;28;20044;-64
2023/07/17 05:46:02;;;;;;;11.88;5.55;;;;;;;18.33;84.25;101577.81;5091833;28;20318;-62
2023/07/17 05:48:30;;;;;;;8.82;4.28;;;;;;;18.25;85.11;101576.53;5075053;28;20075;-63
2023/07/17 05:50:58;;;;;;;12.57;5.40;;;;;;;18.30;85.30;101579.25;5074648;28;20071;-63
2023/07/17 05:53:26;;;;;;;13.20;5.63;;;;;;;18.28;84.60;101581.50;5111090;28;20051;-64
2023/07/17 05:55:54;;;;;;;11.43;5.63;;;;;;;18.06;85.35;101584.88;5078195;28;20040;-64
2023/07/17 05:58:22;;;;;;;13.60;5.78;;;;;;;18.08;85.81;101587.31;5095508;28;20447;-65
2023/07/17 06:00:50;;;;;;;10.82;5.43;;;;;;;17.99;86.21;101594.63;5113370;28;20058;-62
2023/07/17 06:03:18;;;;;;;9.63;4.38;;;;;;;18.03;87.21;101596.50;5050975;28;20049;-64
2023/07/17 06:05:45;;;;;;;10.90;5.70;;;;;;;18.27;85.72;101596.38;5095094;28;20081;-63
2023/07/17 06:08:14;;;;;;;13.52;5.47;;;;;;;18.23;85.21;101598.13;5096033;28;20047;-64
2023/07/17 06:10:43;;;;;;;9.68;3.53;;;;;;;18.39;86.33;101592.34;5112535;28;20084;-65
2023/07/17 06:13:10;;;;;;;14.80;5.82;;;;;;;18.44;84.14;101597.78;5080781;28;20092;-64
2023/07/17 06:15:40;;;;;;;12.30;5.32;;;;;;;18.49;84.99;101592.97;5099504;28;20134;-63
2023/07/17 06:18:08;;;;;;;11.05;4.35;;;;;;;18.43;84.42;101604.41;5117097;28;20101;-65
2023/07/17 06:20:35;;;;;;;12.38;6.10;;;;;;;18.23;84.51;101598.13;5107452;28;20047;-63
2023/07/17 06:23:03;;;;;;;17.25;6.63;;;;;;;18.10;85.62;101596.94;5087234;28;20052;-63
2023/07/17 06:25:31;;;;;;;16.02;6.75;;;;;;;18.07;86.32;101607.75;5115515;28;20071;-64
2023/07/17 06:27:59;;;;;;;14.55;7.43;;;;;;;18.12;86.08;101620.66;5099172;28;20491;-64
2023/07/17 06:30:26;;;;;;;15.00;5.50;;;;;;;18.16;86.50;101611.47;5081409;28;20039;-64
2023/07/17 06:32:54;;;;;;;10.15;5.07;;;;;;;18.35;84.79;101625.25;5081533;28;20501;-64
2023/07/17 06:35:22;;;;;;;12.43;5.13;;;;;;;18.22;85.10;101632.34;5117406;28;20426;-64
2023/07/17 06:37:49;;;;;;;13.13;5.40;;;;;;;18.17;85.67;101626.09;5081384;28;20046;-65
2023/07/17 06:40:17;;;;;;;12.50;6.10;;;;;;;18.10;85.42;101629.22;5098477;28;20051;-64
2023/07/17 06:42:45;;;;;;;14.15;5.72;;;;;;;17.98;86.05;101626.09;5096809;28;20507;-64
2023/07/17 06:45:13;;;;;;;14.52;6.20;;;;;;;17.93;87.11;101628.94;5081938;28;20039;-63
2023/07/17 06:47:41;;;;;;;11.35;5.15;;;;;;;18.08;87.37;101635.00;5098098;28;20108;-62
2023/07/17 06:50:09;;;;;;;15.10;5.57;;;;;;;18.29;86.21;101632.78;5081204;28;20039;-65
2023/07/17 06:52:38;;;;;;;15.00;6.15;;;;;;;18.44;84.57;101634.47;5098212;28;20062;-63
2023/07/17 06:55:08;;;;;;;14.18;6.03;;;;;;;18.35;84.99;101643.72;5114539;28;20044;-64
2023/07/17 06:57:36;;;;;;;14.50;6.30;;;;;;;18.17;85.54;101640.69;5116611;28;20164;-62
2023/07/17 07:00:08;;;;;;;12.82;5.70;;;;;;;18.42;84.66;101642.22;5116058;28;20040;-64
2023/07/17 07:02:36;;;;;;;10.30;4.78;;;;;;;18.47;84.88;101644.06;5116026;28;20105;-63
2023/07/17 07:05:07;;;;;;;16.05;6.35;;;;;;;18.44;84.44;101653.78;5080609;28;20040;-63
2023/07/17 07:07:34;;;;;;;13.93;6.38;;;;;;;18.41;84.13;101651.63;5114920;28;20048;-64
2023/07/17 07:10:03;;;;;;;14.30;5.40;;;;;;;18.22;84.99;101657.16;5116027;28;20488;-63
2023/07/17 07:12:31;;;;;;;16.30;6.43;;;;;;;18.16;85.35;101661.13;5116312;28;20077;-64
2023/07/17 07:14:58;;;;;;;36.42;9.07;;;;;;;18.12;85.80;101662.84;5098974;28;20092;-64
2023/07/17 07:17:26;;;;;;;56.53;14.98;;;;;;;18.20;86.15;101666.84;5111012;28;20048;-64
2023/07/17 07:19:54;;;;;;;18.13;6.95;;;;;;;18.18;86.14;101672.66;5087762;28;20369;-63
2023/07/17 07:22:22;;;;;;;16.83;6.28;;;;;;;18.09;85.99;101671.72;5116576;28;20058;-62
2023/07/17 07:24:50;;;;;;;19.98;7.60;;;;;;;18.26;85.17;101676.72;5107337;28;20058;-63
2023/07/17 07:27:18;;;;;;;15.88;6.22;;;;;;;18.07;85.12;101679.47;5115809;28;20055;-62
2023/07/17 07:29:46;;;;;;;15.80;6.15;;;;;;;18.19;85.59;101676.25;5081819;28;20058;-64
2023/07/17 07:32:14;;;;;;;15.13;5.90;;;;;;;18.23;84.96;101680.88;5088437;28;20054;-64
2023/07/17 07:34:42;;;;;;;16.25;6.18;;;;;;;18.18;85.17;101686.44;5114880;28;20059;-64
2023/07/17 07:37:09;;;;;;;17.48;6.15;;;;;;;18.24;85.61;101688.03;5114676;28;20040;-63
2023/07/17 07:39:37;;;;;;;14.45;5.75;;;;;;;18.30;84.96;101691.53;5081154;28;20046;-64
2023/07/17 07:42:06;;;;;;;16.52;6.03;;;;;;;18.44;84.29;101686.06;5116432;28;20051;-62
2023/07/17 07:44:34;;;;;;;16.55;5.78;;;;;;;18.50;83.83;101676.59;5124987;28;20092;-61
2023/07/17 07:47:05;;;;;;;13.00;5.30;;;;;;;18.50;83.39;101684.88;5110673;28;20110;-58
2023/07/17 07:49:32;;;;;;;15.85;5.95;;;;;;;18.39;83.94;101684.22;5084229;28;20122;-65
2023/07/17 07:52:00;;;;;;;13.45;6.25;;;;;;;18.33;84.02;101699.22;5117722;28;20044;-63
2023/07/17 07:54:28;;;;;;;13.90;5.90;;;;;;;18.25;83.69;101694.34;5094571;28;20103;-61
2023/07/17 07:56:56;;;;;;;14.70;5.55;;;;;;;18.24;83.61;101689.97;5111327;28;20111;-58
2023/07/17 07:59:24;;;;;;;10.55;4.97;;;;;;;18.33;83.73;101698.38;5121969;28;20138;-63
2023/07/17 08:01:52;;;;;;;14.45;5.30;;;;;;;18.41;82.87;101704.06;5115883;28;20047;-64
2023/07/17 08:04:20;;;;;;;12.63;4.95;;;;;;;18.63;82.45;101703.44;5115327;28;20055;-65
2023/07/17 08:06:48;;;;;;;10.82;4.80;;;;;;;18.64;81.40;101699.56;5114811;28;20373;-63
2023/07/17 08:09:16;;;;;;;11.95;5.30;;;;;;;18.58;80.11;101705.47;5114636;28;20487;-63
2023/07/17 08:11:44;;;;;;;10.52;4.60;;;;;;;18.55;80.45;101701.34;5114325;28;20039;-63
2023/07/17 08:14:12;;;;;;;10.90;4.38;;;;;;;18.53;79.67;101698.88;5114977;28;20050;-63
2023/07/17 08:16:40;;;;;;;11.40;4.80;;;;;;;18.55;79.79;101708.81;5069673;28;20482;-65
2023/07/17 08:19:08;;;;;;;12.25;4.35;;;;;;;18.63;80.75;101708.13;5059564;28;20058;-65
2023/07/17 08:21:36;;;;;;;14.60;4.97;;;;;;;18.63;79.49;101713.66;5094383;28;20051;-63
2023/07/17 08:24:04;;;;;;;13.25;4.55;;;;;;;18.65;79.15;101706.72;5107281;28;20062;-63
2023/07/17 08:26:32;;;;;;;14.30;4.80;;;;;;;18.66;78.07;101700.06;5114187;28;20077;-63
2023/07/17 08:29:03;;;;;;;11.25;5.30;;;;;;;18.62;78.67;101699.03;5096562;28;20047;-67
2023/07/17 08:31:32;;;;;;;11.73;5.00;;;;;;;18.67;79.29;101712.75;5114171;28;20066;-63
2023/07/17 08:34:01;;;;;;;11.18;5.15;;;;;;;18.95;80.46;101704.56;5095867;28;20051;-62
2023/07/17 08:36:29;;;;;;;13.55;4.82;;;;;;;19.08;77.86;101712.06;5123646;27;20051;-63
2023/07/17 08:38:57;;;;;;;10.80;4.47;;;;;;;19.04;76.21;101705.50;5116660;27;20670;-64
2023/07/17 08:41:25;;;;;;;7.00;3.20;;;;;;;18.95;79.45;101710.09;5115849;27;20053;-65
2023/07/17 08:43:54;;;;;;;9.20;4.10;;;;;;;18.98;78.08;101703.13;5095973;28;20043;-65
2023/07/17 08:46:22;;;;;;;9.07;4.60;;;;;;;19.08;77.26;101709.31;5095899;28;20159;-64
2023/07/17 08:48:52;;;;;;;11.23;4.47;;;;;;;19.10;78.11;101712.59;5114671;28;20492;-64
2023/07/17 08:51:21;;;;;;;18.48;5.45;;;;;;;19.17;77.05;101726.03;5097023;28;20155;-63
2023/07/17 08:53:53;;;;;;;12.65;5.03;;;;;;;19.10;73.98;101722.84;5096371;28;20440;-63
2023/07/17 08:56:23;;;;;;;12.60;4.57;;;;;;;19.02;73.43;101716.03;5115510;28;20044;-64
2023/07/17 08:58:52;;;;;;;13.48;5.05;;;;;;;18.98;74.25;101716.94;5114331;28;20220;-65
2023/07/17 09:01:20;;;;;;;12.68;4.38;;;;;;;19.01;75.47;101717.19;5078594;28;20096;-62
2023/07/17 09:03:49;;;;;;;13.18;4.60;;;;;;;19.05;74.87;101715.47;5113092;28;20069;-64
2023/07/17 09:06:23;;;;;;;11.55;5.40;;;;;;;19.20;73.92;101711.59;5075345;28;20426;-63
2023/07/17 09:08:52;;;;;;;10.90;4.00;;;;;;;19.28;74.45;101712.81;5086033;28;20048;-65
2023/07/17 09:11:20;;;;;;;13.10;5.53;;;;;;;19.37;71.63;101711.81;5095880;28;20441;-64
2023/07/17 09:13:51;;;;;;;8.32;3.40;;;;;;;19.43;75.30;101714.47;5113655;28;20160;-63
2023/07/17 09:16:23;;;;;;;15.25;5.03;;;;;;;19.43;71.83;101712.53;5113228;28;20431;-63
2023/07/17 09:18:53;;;;;;;17.27;4.80;;;;;;;19.36;70.42;101720.41;5051461;28;20063;-65
2023/07/17 09:21:23;;;;;;;19.20;5.22;;;;;;;19.33;71.04;101713.53;5090021;28;20044;-63
2023/07/17 09:23:53;;;;;;;16.20;5.55;;;;;;;19.26;71.28;101715.06;5104741;28;20453;-65
2023/07/17 09:26:23;;;;;;;13.55;4.93;;;;;;;19.19;70.89;101722.94;5113740;28;20044;-63
2023/07/17 09:28:53;;;;;;;13.75;4.60;;;;;;;19.11;71.81;101719.75;5098949;28;20047;-63
2023/07/17 09:31:25;;;;;;;10.85;4.90;;;;;;;19.10;72.83;101723.66;5100155;28;20036;-63
2023/07/17 09:33:58;;;;;;;14.25;5.65;;;;;;;19.24;71.60;101728.38;5097224;28;20081;-64
2023/07/17 09:36:26;;;;;;;6.95;3.58;;;;;;;19.33;74.59;101726.53;5046365;28;20060;-65
2023/07/17 09:38:55;;;;;;;10.88;4.55;;;;;;;19.35;70.22;101724.31;5083587;28;20698;-67
2023/07/17 09:41:27;;;;;;;10.60;4.20;;;;;;;19.39;70.25;101722.56;5099453;28;20084;-64
2023/07/17 09:44:21;;;;;;;9.73;4.50;;;;;;;19.43;70.30;101715.28;5117935;28;20043;-65
2023/07/17 09:46:49;;;;;;;11.13;4.30;;;;;;;19.44;69.61;101716.13;5070674;28;20048;-63
2023/07/17 09:49:18;;;;;;;8.75;4.13;;;;;;;19.40;68.56;101721.44;5100109;28;20039;-64
2023/07/17 09:51:46;;;;;;;10.05;4.10;;;;;;;19.45;69.10;101717.75;5082383;28;20039;-63
2023/07/17 09:54:14;;;;;;;9.55;3.63;;;;;;;19.47;69.00;101724.63;5099455;28;20040;-65
2023/07/17 09:56:42;;;;;;;14.35;4.68;;;;;;;19.51;67.33;101728.41;5108865;28;20052;-64
2023/07/17 09:59:16;;;;;;;7.68;3.55;;;;;;;19.67;71.54;101726.13;5067157;28;20474;-63
2023/07/17 10:01:47;;;;;;;15.95;4.15;;;;;;;19.72;67.32;101731.63;5096956;28;20096;-63
2023/07/17 10:04:38;;;;;;;9.38;4.28;;;;;;;19.66;69.09;101734.75;5096885;28;20040;-63
2023/07/17 10:07:07;;;;;;;7.47;3.22;;;;;;;19.69;69.07;101731.41;5078739;28;20036;-63
2023/07/17 10:09:36;;;;;;;10.80;3.70;;;;;;;19.62;65.36;101729.00;5088143;28;20054;-64
2023/07/17 10:12:08;;;;;;;11.98;4.03;;;;;;;19.57;65.08;101724.41;5100231;28;20046;-64
2023/07/17 10:14:36;;;;;;;11.93;3.92;;;;;;;19.52;64.99;101724.50;5090285;28;20100;-64
2023/07/17 10:17:04;;;;;;;9.68;4.07;;;;;;;19.49;65.80;101721.56;5108756;28;20036;-65
2023/07/17 10:20:00;;;;;;;9.43;3.95;;;;;;;19.48;65.91;101722.66;5114319;28;20051;-64
2023/07/17 10:22:39;;;;;;;11.02;3.90;;;;;;;19.57;64.93;101724.41;5062597;28;20062;-64
2023/07/17 10:25:16;;;;;;;10.68;3.95;;;;;;;19.79;66.89;101723.75;5088650;28;20403;-63
2023/07/17 10:27:51;;;;;;;7.32;3.40;;;;;;;19.95;64.99;101721.44;5096290;28;20117;-65
2023/07/17 10:30:31;;;;;;;9.68;4.00;;;;;;;20.02;63.56;101732.09;5095944;28;20500;-64
2023/07/17 10:33:15;;;;;;;14.82;6.97;;;;;;;20.18;67.40;101725.09;5096176;28;20541;-64
2023/07/17 10:35:50;;;;;;;38.92;19.67;;;;;;;20.36;67.28;101723.31;5111869;28;20040;-63
2023/07/17 10:38:26;;;;;;;9.65;4.85;;;;;;;20.38;60.76;101729.34;5116541;28;20492;-63
2023/07/17 10:41:12;;;;;;;23.00;9.57;;;;;;;20.20;64.97;101719.25;5115438;28;20415;-64
2023/07/17 10:43:51;;;;;;;17.88;6.57;;;;;;;20.33;61.12;101721.16;5098316;28;20549;-63
2023/07/17 10:46:33;;;;;;;22.08;10.05;;;;;;;20.30;59.17;101732.03;5114625;28;20040;-64
2023/07/17 10:49:08;;;;;;;36.97;15.20;;;;;;;20.40;60.60;101721.56;5117034;28;20452;-63
2023/07/17 10:51:38;;;;;;;39.60;13.98;;;;;;;20.38;59.81;101734.06;5113470;27;20065;-65
2023/07/17 10:54:05;;;;;;;75.53;28.25;;;;;;;20.42;64.60;101719.28;5099271;28;20480;-65
2023/07/17 10:56:33;;;;;;;21.15;8.77;;;;;;;20.34;57.62;101717.25;5114924;28;20100;-62
2023/07/17 10:59:02;;;;;;;14.68;5.97;;;;;;;20.33;58.54;101714.81;5115060;28;20088;-65
2023/07/17 11:01:31;;;;;;;45.70;15.50;;;;;;;20.55;64.20;101716.78;4378541;28;10000803;-65
2023/07/17 11:04:00;;;;;;;26.48;11.15;;;;;;;20.63;57.51;101718.81;5112771;28;20503;-64
2023/07/17 11:06:28;;;;;;;44.08;15.55;;;;;;;20.81;63.09;101709.50;5092216;28;20043;-65
2023/07/17 11:08:56;;;;;;;27.50;11.75;;;;;;;20.88;59.30;101714.63;5104727;28;20091;-64
2023/07/17 11:11:24;;;;;;;23.30;9.32;;;;;;;20.91;61.28;101718.69;5095055;28;20058;-65
2023/07/17 11:13:55;;;;;;;22.35;8.40;;;;;;;21.08;60.15;101720.75;5111655;28;20055;-65
2023/07/17 11:16:23;;;;;;;10.60;4.43;;;;;;;20.97;55.38;101723.81;5111950;28;20051;-64
2023/07/17 11:18:53;;;;;;;9.30;4.15;;;;;;;20.80;54.36;101718.94;5094327;28;20056;-65
2023/07/17 11:21:26;;;;;;;10.95;4.65;;;;;;;20.83;59.34;101718.31;5093969;28;20051;-66
2023/07/17 11:23:58;;;;;;;7.60;4.03;;;;;;;20.78;55.76;101721.22;5084907;28;20059;-65
2023/07/17 11:26:33;;;;;;;11.50;4.53;;;;;;;20.79;54.23;101720.09;5093432;28;20059;-64
2023/07/17 11:29:04;;;;;;;9.77;4.40;;;;;;;20.82;57.39;101722.22;5111614;28;20042;-62
2023/07/17 11:31:34;;;;;;;9.65;4.20;;;;;;;20.93;56.06;101716.44;5110623;28;20055;-64